createdAt,value
2023-05-21T00:00:41.064Z,194.41
2023-05-21T00:01:41.088Z,194.27
2023-05-21T00:02:41.143Z,192.40
2023-05-21T00:03:41.283Z,185.71
2023-05-21T00:04:41.077Z,185.28
2023-05-21T00:05:41.066Z,187.73
2023-05-21T00:06:41.071Z,189.89
2023-05-21T00:07:41.032Z,190.74
2023-05-21T00:08:41.023Z,192.64
2023-05-21T00:09:41.085Z,199.69
2023-05-21T00:10:41.058Z,221.45
2023-05-21T00:11:41.045Z,220.97
2023-05-21T00:12:41.070Z,214.58
2023-05-21T00:13:41.062Z,218.48
2023-05-21T00:14:41.119Z,222.01
2023-05-21T00:15:41.152Z,221.23
2023-05-21T00:16:41.157Z,221.99
2023-05-21T00:17:41.252Z,223.02
2023-05-21T00:18:41.249Z,222.55
2023-05-21T00:19:41.269Z,223.42
2023-05-21T00:20:41.293Z,223.44
2023-05-21T00:21:41.263Z,221.24
2023-05-21T00:22:41.258Z,218.83
2023-05-21T00:23:41.305Z,215.54
2023-05-21T00:24:41.335Z,210.63
2023-05-21T00:25:41.390Z,209.50
2023-05-21T00:26:41.422Z,206.56
2023-05-21T00:27:41.444Z,205.76
2023-05-21T00:28:41.493Z,205.31
2023-05-21T00:29:44.172Z,205.10
2023-05-21T00:30:41.488Z,206.07
2023-05-21T00:31:41.587Z,205.22
2023-05-21T00:32:41.553Z,205.30
2023-05-21T00:33:41.567Z,205.16
2023-05-21T00:34:41.494Z,200.62
2023-05-21T00:35:41.494Z,199.71
2023-05-21T00:36:41.469Z,196.83
2023-05-21T00:37:41.501Z,193.44
2023-05-21T00:38:41.478Z,193.50
2023-05-21T00:39:41.458Z,195.12
2023-05-21T00:40:41.457Z,193.30
2023-05-21T00:41:41.440Z,193.14
2023-05-21T00:42:41.437Z,187.80
2023-05-21T00:43:41.500Z,184.50
2023-05-21T00:44:41.429Z,187.07
2023-05-21T00:45:41.411Z,185.64
2023-05-21T00:46:41.403Z,187.51
2023-05-21T00:47:41.465Z,187.92
2023-05-21T00:48:41.437Z,191.97
2023-05-21T00:49:41.410Z,192.55
2023-05-21T00:50:41.432Z,189.68
2023-05-21T00:51:41.397Z,191.43
2023-05-21T00:52:41.382Z,196.94
2023-05-21T00:53:41.363Z,200.94
2023-05-21T00:54:41.372Z,199.56
2023-05-21T00:55:41.353Z,199.81
2023-05-21T00:56:41.350Z,199.07
2023-05-21T00:57:41.334Z,200.74
2023-05-21T00:58:41.338Z,200.64
2023-05-21T00:59:41.330Z,201.74
2023-05-21T01:00:41.303Z,201.41
2023-05-21T01:01:41.310Z,200.87
2023-05-21T01:02:41.421Z,199.67
2023-05-21T01:03:41.421Z,195.42
2023-05-21T01:04:41.297Z,188.42
2023-05-21T01:05:41.304Z,191.57
2023-05-21T01:06:41.248Z,194.18
2023-05-21T01:07:41.288Z,195.53
2023-05-21T01:08:41.261Z,196.03
2023-05-21T01:09:41.229Z,196.48
2023-05-21T01:10:41.268Z,197.38
2023-05-21T01:11:41.271Z,198.22
2023-05-21T01:12:41.228Z,198.78
2023-05-21T01:13:41.304Z,197.03
2023-05-21T01:14:41.197Z,197.18
2023-05-21T01:15:41.236Z,197.46
2023-05-21T01:16:41.259Z,195.51
2023-05-21T01:17:41.286Z,194.56
2023-05-21T01:18:41.289Z,196.02
2023-05-21T01:19:41.217Z,193.76
2023-05-21T01:20:41.230Z,194.20
2023-05-21T01:21:41.183Z,193.85
2023-05-21T01:22:41.155Z,194.24
2023-05-21T01:23:41.147Z,195.92
2023-05-21T01:24:41.167Z,195.79
2023-05-21T01:25:41.173Z,194.75
2023-05-21T01:26:41.147Z,196.65
2023-05-21T01:27:41.160Z,196.47
2023-05-21T01:28:41.939Z,195.22
2023-05-21T01:29:41.141Z,195.83
2023-05-21T01:30:41.133Z,195.25
2023-05-21T01:31:41.101Z,194.19
2023-05-21T01:32:41.131Z,194.33
2023-05-21T01:33:41.140Z,194.22
2023-05-21T01:34:41.100Z,194.22
2023-05-21T01:35:41.101Z,193.07
2023-05-21T01:36:41.082Z,192.87
2023-05-21T01:37:41.052Z,190.58
2023-05-21T01:38:41.078Z,187.91
2023-05-21T01:39:41.115Z,189.61
2023-05-21T01:40:41.130Z,189.56
2023-05-21T01:41:41.218Z,192.16
2023-05-21T01:42:42.167Z,192.28
2023-05-21T01:43:41.215Z,189.83
2023-05-21T01:44:41.227Z,186.31
2023-05-21T01:45:41.274Z,187.76
2023-05-21T01:46:41.378Z,194.02
2023-05-21T01:47:41.398Z,196.10
2023-05-21T01:48:41.432Z,196.04
2023-05-21T01:49:41.426Z,194.02
2023-05-21T01:50:41.474Z,195.31
2023-05-21T01:51:41.508Z,216.92
2023-05-21T01:52:41.530Z,199.22
2023-05-21T01:53:41.591Z,193.93
2023-05-21T01:54:41.585Z,193.92
2023-05-21T01:55:41.607Z,194.65
2023-05-21T01:56:41.624Z,195.42
2023-05-21T01:57:41.682Z,194.80
2023-05-21T01:58:41.697Z,192.25
2023-05-21T01:59:41.701Z,192.62
2023-05-21T02:00:41.718Z,193.54
2023-05-21T02:01:41.785Z,196.16
2023-05-21T02:02:41.808Z,200.00
2023-05-21T02:03:41.882Z,200.78
2023-05-21T02:04:41.790Z,200.00
2023-05-21T02:05:41.812Z,199.95
2023-05-21T02:06:41.870Z,199.07
2023-05-21T02:07:41.957Z,200.00
2023-05-21T02:08:41.904Z,199.51
2023-05-21T02:09:41.943Z,191.07
2023-05-21T02:10:41.992Z,181.28
2023-05-21T02:11:42.026Z,187.00
2023-05-21T02:12:42.110Z,190.48
2023-05-21T02:13:42.113Z,191.12
2023-05-21T02:14:42.137Z,192.42
2023-05-21T02:16:52.580Z,50.00
2023-05-21T02:17:52.677Z,50.00
2023-05-21T02:18:52.671Z,50.00
2023-05-21T02:19:52.660Z,50.00
2023-05-21T02:20:52.641Z,50.00
2023-05-21T02:21:52.613Z,58.90
2023-05-21T02:22:52.589Z,68.78
2023-05-21T02:23:52.582Z,96.53
2023-05-21T02:24:52.545Z,84.74
2023-05-21T02:25:52.550Z,84.78
2023-05-21T02:26:52.624Z,81.31
2023-05-21T02:27:52.566Z,53.81
2023-05-21T02:28:52.562Z,56.96
2023-05-21T02:29:52.558Z,60.71
2023-05-21T02:30:52.563Z,73.15
2023-05-21T02:31:52.548Z,71.79
2023-05-21T02:32:52.558Z,68.80
2023-05-21T02:33:52.571Z,69.03
2023-05-21T02:34:52.488Z,88.04
2023-05-21T02:35:52.517Z,83.76
2023-05-21T02:36:52.545Z,91.25
2023-05-21T02:37:52.441Z,88.29
2023-05-21T02:38:52.441Z,73.44
2023-05-21T02:39:52.450Z,79.72
2023-05-21T02:40:52.470Z,55.54
2023-05-21T02:41:52.470Z,6.99
2023-05-21T02:42:52.448Z,0.00
2023-05-21T02:43:52.423Z,23.80
2023-05-21T02:44:52.409Z,40.45
2023-05-21T02:45:52.439Z,49.90
2023-05-21T02:46:52.463Z,55.29
2023-05-21T02:47:52.440Z,80.41
2023-05-21T02:48:52.369Z,107.87
2023-05-21T02:49:52.400Z,108.67
2023-05-21T02:50:52.407Z,126.74
2023-05-21T02:51:52.361Z,153.61
2023-05-21T02:52:52.436Z,152.82
2023-05-21T02:53:52.352Z,139.25
2023-05-21T02:54:52.361Z,142.12
2023-05-21T02:55:52.361Z,156.19
2023-05-21T02:56:52.392Z,143.53
2023-05-21T02:57:52.360Z,114.61
2023-05-21T02:58:52.360Z,103.68
2023-05-21T02:59:52.306Z,86.70
2023-05-21T03:00:52.437Z,69.35
2023-05-21T03:01:52.335Z,58.19
2023-05-21T03:02:52.368Z,22.04
2023-05-21T03:03:52.286Z,47.08
2023-05-21T03:04:52.279Z,46.15
2023-05-21T03:05:52.284Z,56.82
2023-05-21T03:06:52.278Z,52.08
2023-05-21T03:07:52.251Z,49.79
2023-05-21T03:08:52.251Z,45.65
2023-05-21T03:09:52.203Z,46.60
2023-05-21T03:10:52.251Z,51.92
2023-05-21T03:11:52.245Z,69.95
2023-05-21T03:12:52.243Z,57.21
2023-05-21T03:13:52.231Z,50.35
2023-05-21T03:14:52.235Z,37.40
2023-05-21T03:15:52.202Z,49.63
2023-05-21T03:16:52.236Z,95.69
2023-05-21T03:17:52.303Z,92.96
2023-05-21T03:18:52.235Z,90.00
2023-05-21T03:19:52.231Z,118.09
2023-05-21T03:20:52.290Z,190.32
2023-05-21T03:21:52.288Z,205.84
2023-05-21T03:22:52.307Z,200.60
2023-05-21T03:23:52.327Z,193.33
2023-05-21T03:24:52.358Z,186.76
2023-05-21T03:25:52.859Z,204.21
2023-05-21T03:26:52.430Z,151.86
2023-05-21T03:27:52.435Z,112.02
2023-05-21T03:28:52.541Z,82.22
2023-05-21T03:29:52.557Z,76.42
2023-05-21T03:30:52.547Z,123.45
2023-05-21T03:31:52.661Z,121.24
2023-05-21T03:32:52.773Z,125.72
2023-05-21T03:33:52.637Z,121.51
2023-05-21T03:34:52.630Z,123.31
2023-05-21T03:35:52.685Z,129.02
2023-05-21T03:36:52.654Z,142.97
2023-05-21T03:37:52.706Z,162.26
2023-05-21T03:38:52.716Z,157.44
2023-05-21T03:39:52.758Z,138.91
2023-05-21T03:40:52.770Z,130.09
2023-05-21T03:41:52.787Z,134.56
2023-05-21T03:42:52.842Z,143.62
2023-05-21T03:43:52.858Z,153.86
2023-05-21T03:44:52.894Z,153.54
2023-05-21T03:45:52.979Z,145.82
2023-05-21T03:46:53.029Z,151.48
2023-05-21T03:47:53.033Z,162.40
2023-05-21T03:48:53.032Z,168.36
2023-05-21T03:49:53.046Z,202.85
2023-05-21T03:50:53.097Z,187.58
2023-05-21T03:51:53.140Z,146.55
2023-05-21T03:52:53.137Z,124.25
2023-05-21T03:53:53.205Z,132.45
2023-05-21T03:54:53.245Z,145.32
2023-05-21T03:55:53.242Z,145.05
2023-05-21T03:56:53.287Z,158.90
2023-05-21T03:57:53.289Z,185.72
2023-05-21T03:58:53.365Z,184.96
2023-05-21T03:59:53.366Z,183.42
2023-05-21T04:00:53.432Z,184.29
2023-05-21T04:01:53.488Z,190.45
2023-05-21T04:02:53.573Z,197.63
2023-05-21T04:03:53.639Z,188.94
2023-05-21T04:04:53.720Z,191.97
2023-05-21T04:05:53.592Z,204.78
2023-05-21T04:06:53.608Z,199.05
2023-05-21T04:07:53.620Z,213.83
2023-05-21T04:08:53.663Z,200.57
2023-05-21T04:09:53.673Z,192.80
2023-05-21T04:10:53.730Z,188.12
2023-05-21T04:11:53.800Z,187.22
2023-05-21T04:12:53.749Z,190.96
2023-05-21T04:13:53.769Z,197.29
2023-05-21T04:14:53.777Z,200.14
2023-05-21T04:15:53.913Z,200.00
2023-05-21T04:16:53.900Z,200.00
2023-05-21T04:17:53.920Z,200.00
2023-05-21T04:18:54.024Z,198.77
2023-05-21T04:19:53.956Z,198.53
2023-05-21T04:20:54.023Z,194.07
2023-05-21T04:21:53.972Z,191.35
2023-05-21T04:22:53.978Z,195.51
2023-05-21T04:23:54.042Z,196.62
2023-05-21T04:24:54.039Z,197.38
2023-05-21T04:25:54.083Z,197.07
2023-05-21T04:26:54.153Z,199.69
2023-05-21T04:27:54.170Z,199.26
2023-05-21T04:28:54.224Z,193.00
2023-05-21T04:29:54.215Z,190.79
2023-05-21T04:30:54.322Z,192.53
2023-05-21T04:31:54.291Z,179.62
2023-05-21T04:32:54.292Z,176.64
2023-05-21T04:33:54.342Z,171.88
2023-05-21T04:34:54.378Z,174.45
2023-05-21T04:35:54.438Z,173.18
2023-05-21T04:36:54.469Z,168.83
2023-05-21T04:37:54.548Z,167.33
2023-05-21T04:38:54.553Z,174.46
2023-05-21T04:39:54.589Z,168.75
2023-05-21T04:40:54.597Z,166.45
2023-05-21T04:41:54.647Z,163.34
2023-05-21T04:42:54.634Z,163.11
2023-05-21T04:43:54.695Z,163.79
2023-05-21T04:44:54.714Z,157.20
2023-05-21T04:45:54.749Z,135.46
2023-05-21T04:46:54.943Z,126.04
2023-05-21T04:47:54.895Z,128.63
2023-05-21T04:48:54.963Z,133.15
2023-05-21T04:49:54.858Z,126.14
2023-05-21T04:50:54.895Z,121.47
2023-05-21T04:51:54.875Z,133.88
2023-05-21T04:52:54.963Z,145.27
2023-05-21T04:53:54.951Z,153.51
2023-05-21T04:54:54.913Z,152.14
2023-05-21T04:55:54.972Z,148.70
2023-05-21T04:56:54.980Z,141.44
2023-05-21T04:57:55.023Z,141.01
2023-05-21T04:58:55.018Z,126.68
2023-05-21T04:59:55.032Z,119.89
2023-05-21T05:00:55.135Z,123.66
2023-05-21T05:01:55.113Z,127.36
2023-05-21T05:02:55.257Z,127.90
2023-05-21T05:03:55.161Z,127.02
2023-05-21T05:04:55.180Z,130.19
2023-05-21T05:05:55.240Z,124.60
2023-05-21T05:06:55.263Z,125.64
2023-05-21T05:07:55.265Z,128.49
2023-05-21T05:08:55.287Z,138.94
2023-05-21T05:09:55.327Z,130.12
2023-05-21T05:10:55.361Z,124.56
2023-05-21T05:11:55.380Z,128.00
2023-05-21T05:12:55.415Z,125.81
2023-05-21T05:13:55.445Z,132.67
2023-05-21T05:14:55.509Z,146.74
2023-05-21T05:15:55.529Z,146.50
2023-05-21T05:16:55.614Z,146.83
2023-05-21T05:17:55.548Z,156.11
2023-05-21T05:18:55.579Z,158.30
2023-05-21T05:19:55.587Z,151.68
2023-05-21T05:20:55.604Z,155.75
2023-05-21T05:21:55.559Z,151.59
2023-05-21T05:22:55.605Z,138.73
2023-05-21T05:23:55.669Z,141.78
2023-05-21T05:24:55.692Z,139.25
2023-05-21T05:25:55.741Z,136.78
2023-05-21T05:26:55.726Z,132.02
2023-05-21T05:27:55.795Z,136.21
2023-05-21T05:28:55.804Z,145.83
2023-05-21T05:29:55.856Z,149.68
2023-05-21T05:30:55.889Z,154.48
2023-05-21T05:31:55.862Z,153.53
2023-05-21T05:32:55.968Z,151.75
2023-05-21T05:33:55.884Z,155.17
2023-05-21T05:34:56.046Z,148.24
2023-05-21T05:35:56.061Z,138.87
2023-05-21T05:36:56.076Z,141.91
2023-05-21T05:37:56.089Z,126.23
2023-05-21T05:38:56.093Z,125.35
2023-05-21T05:39:56.091Z,110.86
2023-05-21T05:40:56.123Z,118.49
2023-05-21T05:41:56.175Z,123.71
2023-05-21T05:42:56.164Z,122.60
2023-05-21T05:43:56.113Z,127.35
2023-05-21T05:44:56.155Z,122.11
2023-05-21T05:45:56.270Z,96.97
2023-05-21T05:46:56.307Z,82.64
2023-05-21T05:47:56.382Z,80.67
2023-05-21T05:48:56.389Z,74.41
2023-05-21T05:49:56.389Z,80.89
2023-05-21T05:50:56.470Z,86.40
2023-05-21T05:51:56.494Z,95.12
2023-05-21T05:52:56.512Z,92.31
2023-05-21T05:53:56.542Z,76.51
2023-05-21T05:54:56.599Z,70.88
2023-05-21T05:55:56.588Z,81.96
2023-05-21T05:56:56.624Z,51.37
2023-05-21T05:57:56.626Z,48.77
2023-05-21T05:58:56.709Z,59.07
2023-05-21T05:59:56.683Z,60.10
2023-05-21T06:00:56.754Z,38.93
2023-05-21T06:01:58.336Z,49.48
2023-05-21T06:02:56.927Z,39.12
2023-05-21T06:03:56.844Z,35.00
2023-05-21T06:04:56.828Z,50.76
2023-05-21T06:05:56.946Z,59.33
2023-05-21T06:06:56.855Z,56.11
2023-05-21T06:07:56.894Z,55.77
2023-05-21T06:08:56.936Z,63.49
2023-05-21T06:09:57.034Z,69.57
2023-05-21T06:10:56.975Z,60.76
2023-05-21T06:11:57.025Z,41.38
2023-05-21T06:12:57.025Z,24.43
2023-05-21T06:13:57.065Z,42.79
2023-05-21T06:14:57.112Z,54.86
2023-05-21T06:15:57.162Z,58.42
2023-05-21T06:16:57.160Z,52.82
2023-05-21T06:17:57.211Z,53.42
2023-05-21T06:18:57.240Z,56.72
2023-05-21T06:19:57.238Z,71.64
2023-05-21T06:20:57.289Z,63.06
2023-05-21T06:21:57.317Z,60.58
2023-05-21T06:22:57.301Z,56.95
2023-05-21T06:23:57.402Z,55.63
2023-05-21T06:24:57.437Z,45.50
2023-05-21T06:25:57.472Z,57.51
2023-05-21T06:26:57.436Z,54.49
2023-05-21T06:27:57.560Z,56.35
2023-05-21T06:28:57.555Z,49.64
2023-05-21T06:29:57.558Z,50.58
2023-05-21T06:30:57.562Z,50.91
2023-05-21T06:31:57.601Z,39.12
2023-05-21T06:32:57.738Z,43.43
2023-05-21T06:33:57.782Z,45.72
2023-05-21T06:34:57.757Z,44.85
2023-05-21T06:35:57.816Z,53.54
2023-05-21T06:36:57.809Z,63.10
2023-05-21T06:37:57.815Z,53.52
2023-05-21T06:38:57.871Z,41.40
2023-05-21T06:39:57.825Z,48.85
2023-05-21T06:40:57.952Z,50.11
2023-05-21T06:41:57.928Z,51.06
2023-05-21T06:42:57.956Z,52.76
2023-05-21T06:43:57.988Z,62.23
2023-05-21T06:44:57.995Z,65.11
2023-05-21T06:45:58.129Z,66.76
2023-05-21T06:46:58.101Z,67.36
2023-05-21T06:47:58.129Z,73.30
2023-05-21T06:48:58.128Z,76.28
2023-05-21T06:49:58.159Z,72.85
2023-05-21T06:50:58.197Z,64.74
2023-05-21T06:51:58.218Z,63.94
2023-05-21T06:52:58.247Z,57.77
2023-05-21T06:53:58.260Z,62.40
2023-05-21T06:54:58.296Z,56.21
2023-05-21T06:55:58.347Z,61.45
2023-05-21T06:56:58.357Z,72.87
2023-05-21T06:57:58.364Z,72.18
2023-05-21T06:58:58.363Z,46.66
2023-05-21T06:59:58.413Z,51.07
2023-05-21T07:00:58.521Z,51.11
2023-05-21T07:01:58.502Z,50.00
2023-05-21T07:02:58.632Z,60.76
2023-05-21T07:03:58.546Z,62.82
2023-05-21T07:04:58.536Z,56.30
2023-05-21T07:05:58.632Z,49.24
2023-05-21T07:06:58.642Z,53.45
2023-05-21T07:07:58.654Z,64.95
2023-05-21T07:08:58.640Z,54.84
2023-05-21T07:09:58.715Z,55.67
2023-05-21T07:10:58.742Z,51.46
2023-05-21T07:11:58.695Z,55.57
2023-05-21T07:12:58.756Z,59.86
2023-05-21T07:13:58.791Z,65.79
2023-05-21T07:14:59.431Z,64.87
2023-05-21T07:15:58.827Z,64.81
2023-05-21T07:16:58.948Z,66.60
2023-05-21T07:17:58.968Z,65.20
2023-05-21T07:18:59.026Z,59.90
2023-05-21T07:19:59.032Z,60.68
2023-05-21T07:20:59.185Z,71.71
2023-05-21T07:21:59.034Z,74.65
2023-05-21T07:22:59.037Z,68.24
2023-05-21T07:23:59.097Z,72.35
2023-05-21T07:24:59.113Z,89.97
2023-05-21T07:25:59.164Z,83.46
2023-05-21T07:26:59.165Z,99.93
2023-05-21T07:27:59.196Z,102.33
2023-05-21T07:28:59.235Z,90.20
2023-05-21T07:29:59.260Z,83.41
2023-05-21T07:30:59.371Z,79.55
2023-05-21T07:31:59.367Z,79.41
2023-05-21T07:32:59.438Z,79.15
2023-05-21T07:33:59.420Z,86.64
2023-05-21T07:34:59.426Z,69.45
2023-05-21T07:35:59.447Z,70.87
2023-05-21T07:36:59.549Z,74.33
2023-05-21T07:37:59.527Z,70.33
2023-05-21T07:38:59.961Z,77.86
2023-05-21T07:39:59.540Z,77.12
2023-05-21T07:40:59.588Z,86.49
2023-05-21T07:41:59.574Z,82.01
2023-05-21T07:42:59.599Z,83.25
2023-05-21T07:43:59.674Z,86.65
2023-05-21T07:44:59.722Z,83.31
2023-05-21T07:45:59.770Z,67.30
2023-05-21T07:46:59.774Z,56.56
2023-05-21T07:47:59.855Z,50.99
2023-05-21T07:48:59.859Z,48.71
2023-05-21T07:49:59.983Z,49.86
2023-05-21T07:50:59.955Z,55.13
2023-05-21T07:51:59.951Z,61.73
2023-05-21T07:53:00.033Z,51.01
2023-05-21T07:53:59.980Z,49.64
2023-05-21T07:54:59.997Z,62.10
2023-05-21T07:56:00.052Z,74.08
2023-05-21T07:57:00.102Z,69.55
2023-05-21T07:58:00.107Z,48.22
2023-05-21T07:59:00.151Z,43.13
2023-05-21T08:00:00.134Z,53.22
2023-05-21T08:01:00.179Z,49.94
2023-05-21T08:02:00.179Z,34.75
2023-05-21T08:03:00.334Z,30.07
2023-05-21T08:04:00.393Z,26.92
2023-05-21T08:05:00.379Z,35.49
2023-05-21T08:06:01.131Z,33.92
2023-05-21T08:07:00.403Z,39.10
2023-05-21T08:08:00.398Z,41.31
2023-05-21T08:09:00.459Z,54.90
2023-05-21T08:10:02.539Z,64.58
2023-05-21T08:11:00.503Z,59.92
2023-05-21T08:12:00.482Z,64.90
2023-05-21T08:13:00.450Z,56.43
2023-05-21T08:14:00.485Z,61.22
2023-05-21T08:15:00.475Z,54.45
2023-05-21T08:16:00.581Z,60.95
2023-05-21T08:17:00.577Z,71.62
2023-05-21T08:18:00.608Z,63.79
2023-05-21T08:19:00.731Z,77.27
2023-05-21T08:20:00.621Z,72.15
2023-05-21T08:21:00.672Z,71.53
2023-05-21T08:22:00.691Z,66.02
2023-05-21T08:23:00.728Z,74.86
2023-05-21T08:24:00.760Z,88.17
2023-05-21T08:25:00.731Z,96.27
2023-05-21T08:26:00.806Z,97.58
2023-05-21T08:27:00.807Z,98.08
2023-05-21T08:28:00.874Z,110.68
2023-05-21T08:29:00.893Z,99.34
2023-05-21T08:30:00.907Z,90.86
2023-05-21T08:31:00.948Z,86.93
2023-05-21T08:32:01.070Z,98.81
2023-05-21T08:33:01.088Z,87.75
2023-05-21T08:34:01.029Z,85.81
2023-05-21T08:35:02.150Z,90.19
2023-05-21T08:36:01.126Z,83.49
2023-05-21T08:37:01.208Z,78.76
2023-05-21T08:38:01.209Z,79.65
2023-05-21T08:39:01.237Z,75.83
2023-05-21T08:40:01.252Z,73.94
2023-05-21T08:41:01.315Z,67.64
2023-05-21T08:42:01.328Z,70.36
2023-05-21T08:43:01.363Z,68.90
2023-05-21T08:44:01.407Z,68.48
2023-05-21T08:45:01.411Z,72.37
2023-05-21T08:46:01.523Z,86.46
2023-05-21T08:47:01.500Z,76.89
2023-05-21T08:48:01.530Z,96.67
2023-05-21T08:49:01.575Z,87.09
2023-05-21T08:50:01.605Z,92.58
2023-05-21T08:51:01.659Z,88.94
2023-05-21T08:52:01.692Z,91.65
2023-05-21T08:53:04.028Z,99.83
2023-05-21T08:54:02.680Z,92.71
2023-05-21T08:55:01.677Z,99.01
2023-05-21T08:56:01.667Z,94.69
2023-05-21T08:57:01.667Z,80.10
2023-05-21T08:58:01.705Z,77.27
2023-05-21T08:59:01.660Z,79.00
2023-05-21T09:00:01.642Z,67.95
2023-05-21T09:01:01.670Z,60.49
2023-05-21T09:02:01.754Z,65.53
2023-05-21T09:03:01.753Z,63.11
2023-05-21T09:04:12.217Z,32.58
2023-05-21T09:05:02.635Z,13.53
2023-05-21T09:06:01.653Z,2.92
2023-05-21T09:07:01.605Z,1.18
2023-05-21T09:08:01.566Z,0.00
2023-05-21T09:09:01.593Z,0.00
2023-05-21T09:10:01.558Z,0.00
2023-05-21T09:11:01.618Z,0.00
2023-05-21T09:12:01.591Z,0.00
2023-05-21T09:13:01.534Z,0.00
2023-05-21T09:14:01.534Z,0.00
2023-05-21T09:15:01.560Z,0.00
2023-05-21T09:16:01.591Z,0.00
2023-05-21T09:17:01.657Z,0.00
2023-05-21T09:18:01.605Z,0.00
2023-05-21T09:19:04.377Z,0.00
2023-05-21T09:20:01.555Z,0.00
2023-05-21T09:21:01.587Z,0.00
2023-05-21T09:22:01.563Z,0.00
2023-05-21T09:23:01.534Z,0.00
2023-05-21T09:24:01.618Z,0.00
2023-05-21T09:25:01.561Z,0.00
2023-05-21T09:26:01.559Z,0.00
2023-05-21T09:27:01.501Z,0.00
2023-05-21T09:28:01.518Z,0.00
2023-05-21T09:29:01.523Z,0.00
2023-05-21T09:30:01.525Z,0.00
2023-05-21T09:31:01.533Z,0.00
2023-05-21T09:32:01.506Z,0.00
2023-05-21T09:33:01.544Z,0.00
2023-05-21T09:34:01.546Z,0.00
2023-05-21T09:35:01.445Z,0.00
2023-05-21T09:36:01.489Z,0.00
2023-05-21T09:37:01.420Z,1.27
2023-05-21T09:38:01.427Z,7.15
2023-05-21T09:39:01.409Z,11.19
2023-05-21T09:40:01.452Z,12.02
2023-05-21T09:41:01.427Z,11.19
2023-05-21T09:42:01.444Z,11.61
2023-05-21T09:43:01.370Z,13.80
2023-05-21T09:44:01.386Z,17.88
2023-05-21T09:45:01.387Z,16.61
2023-05-21T09:46:02.313Z,25.58
2023-05-21T09:47:01.388Z,22.09
2023-05-21T09:48:01.426Z,24.66
2023-05-21T09:49:01.364Z,24.70
2023-05-21T09:50:01.389Z,25.69
2023-05-21T09:51:01.385Z,30.78
2023-05-21T09:52:01.312Z,35.54
2023-05-21T09:53:01.311Z,37.28
2023-05-21T09:54:01.325Z,38.79
2023-05-21T09:55:01.386Z,42.33
2023-05-21T09:56:01.317Z,39.91
2023-05-21T09:57:01.291Z,41.44
2023-05-21T09:58:01.300Z,44.78
2023-05-21T09:59:01.329Z,44.32
2023-05-21T10:00:01.314Z,46.29
2023-05-21T10:01:01.296Z,45.15
2023-05-21T10:02:01.398Z,48.28
2023-05-21T10:03:01.352Z,50.42
2023-05-21T10:04:01.307Z,53.89
2023-05-21T10:05:01.285Z,52.37
2023-05-21T10:06:01.286Z,50.91
2023-05-21T10:07:01.218Z,51.89
2023-05-21T10:08:01.256Z,50.88
2023-05-21T10:09:02.542Z,51.92
2023-05-21T10:10:01.227Z,51.98
2023-05-21T10:11:01.222Z,50.41
2023-05-21T10:12:01.226Z,49.91
2023-05-21T10:13:01.216Z,49.75
2023-05-21T10:14:01.194Z,46.46
2023-05-21T10:15:01.164Z,50.22
2023-05-21T10:16:01.261Z,52.85
2023-05-21T10:17:01.195Z,58.01
2023-05-21T10:18:01.260Z,52.77
2023-05-21T10:19:01.257Z,54.65
2023-05-21T10:20:01.168Z,53.03
2023-05-21T10:21:01.179Z,53.54
2023-05-21T10:22:01.150Z,53.22
2023-05-21T10:23:01.147Z,55.47
2023-05-21T10:24:01.169Z,52.22
2023-05-21T10:25:01.137Z,49.24
2023-05-21T10:26:01.104Z,48.76
2023-05-21T10:27:01.113Z,54.56
2023-05-21T10:28:01.079Z,55.69
2023-05-21T10:29:01.105Z,52.44
2023-05-21T10:30:01.139Z,51.21
2023-05-21T10:31:01.084Z,53.81
2023-05-21T10:32:01.193Z,55.37
2023-05-21T10:33:01.228Z,55.97
2023-05-21T10:34:01.071Z,55.88
2023-05-21T10:35:01.883Z,52.69
2023-05-21T10:36:01.077Z,53.39
2023-05-21T10:37:01.061Z,51.94
2023-05-21T10:38:01.087Z,52.59
2023-05-21T10:39:00.999Z,50.60
2023-05-21T10:40:01.041Z,51.04
2023-05-21T10:41:01.000Z,52.36
2023-05-21T10:42:01.025Z,52.62
2023-05-21T10:43:01.011Z,49.67
2023-05-21T10:44:01.006Z,50.94
2023-05-21T10:45:00.985Z,51.34
2023-05-21T10:46:01.077Z,50.84
2023-05-21T10:47:00.972Z,51.28
2023-05-21T10:48:01.028Z,50.73
2023-05-21T10:49:00.972Z,50.84
2023-05-21T10:50:00.978Z,53.68
2023-05-21T10:51:00.980Z,49.87
2023-05-21T10:52:00.958Z,52.58
2023-05-21T10:53:01.007Z,55.58
2023-05-21T10:54:00.936Z,54.55
2023-05-21T10:55:00.929Z,54.30
2023-05-21T10:56:00.962Z,52.83
2023-05-21T10:57:00.966Z,50.96
2023-05-21T10:58:00.879Z,50.00
2023-05-21T10:59:00.880Z,53.40
2023-05-21T11:00:01.009Z,53.23
2023-05-21T11:01:01.094Z,51.19
2023-05-21T11:02:01.056Z,52.20
2023-05-21T11:03:01.080Z,49.99
2023-05-21T11:04:01.195Z,48.73
2023-05-21T11:05:01.114Z,46.46
2023-05-21T11:06:01.127Z,49.90
2023-05-21T11:07:01.094Z,50.27
2023-05-21T11:08:01.174Z,52.21
2023-05-21T11:09:01.212Z,49.56
2023-05-21T11:10:01.224Z,52.36
2023-05-21T11:11:01.281Z,53.13
2023-05-21T11:12:01.277Z,50.97
2023-05-21T11:13:01.259Z,50.00
2023-05-21T11:14:01.322Z,53.07
2023-05-21T11:15:01.298Z,54.41
2023-05-21T11:16:01.364Z,54.90
2023-05-21T11:17:01.423Z,51.41
2023-05-21T11:18:01.468Z,53.76
2023-05-21T11:19:01.530Z,54.18
2023-05-21T11:20:01.534Z,55.66
2023-05-21T11:21:01.548Z,55.34
2023-05-21T11:22:01.500Z,52.63
2023-05-21T11:23:01.570Z,54.60
2023-05-21T11:24:01.640Z,50.45
2023-05-21T11:25:01.635Z,51.21
2023-05-21T11:26:01.737Z,49.88
2023-05-21T11:27:01.693Z,51.29
2023-05-21T11:28:01.762Z,56.30
2023-05-21T11:29:01.758Z,59.46
2023-05-21T11:30:01.818Z,60.26
2023-05-21T11:31:01.850Z,61.09
2023-05-21T11:32:01.881Z,57.54
2023-05-21T11:33:01.945Z,56.36
2023-05-21T11:34:01.945Z,57.04
2023-05-21T11:35:02.054Z,60.25
2023-05-21T11:36:02.016Z,57.12
2023-05-21T11:37:02.014Z,57.52
2023-05-21T11:38:02.021Z,57.82
2023-05-21T11:39:02.074Z,58.59
2023-05-21T11:40:02.131Z,61.81
2023-05-21T11:41:02.166Z,62.16
2023-05-21T11:42:04.465Z,61.19
2023-05-21T11:43:02.312Z,65.06
2023-05-21T11:44:02.387Z,63.81
2023-05-21T11:45:02.483Z,62.59
2023-05-21T11:46:02.550Z,59.47
2023-05-21T11:47:02.518Z,60.74
2023-05-21T11:48:02.583Z,59.35
2023-05-21T11:49:02.506Z,63.02
2023-05-21T11:50:02.585Z,59.12
2023-05-21T11:51:02.569Z,56.60
2023-05-21T11:52:02.644Z,52.69
2023-05-21T11:53:02.663Z,57.02
2023-05-21T11:54:02.674Z,57.58
2023-05-21T11:55:02.695Z,57.53
2023-05-21T11:56:02.772Z,62.50
2023-05-21T11:57:02.762Z,64.90
2023-05-21T11:58:02.772Z,72.24
2023-05-21T11:59:02.864Z,71.39
2023-05-21T12:00:02.826Z,69.89
2023-05-21T12:01:02.913Z,69.49
2023-05-21T12:02:02.909Z,67.38
2023-05-21T12:03:02.978Z,72.04
2023-05-21T12:04:03.082Z,71.81
2023-05-21T12:05:03.036Z,74.76
2023-05-21T12:06:03.129Z,78.04
2023-05-21T12:07:03.082Z,77.70
2023-05-21T12:08:03.102Z,70.72
2023-05-21T12:09:03.112Z,68.14
2023-05-21T12:10:03.178Z,66.80
2023-05-21T12:11:03.216Z,63.18
2023-05-21T12:12:03.211Z,64.81
2023-05-21T12:13:04.956Z,70.76
2023-05-21T12:14:03.396Z,70.04
2023-05-21T12:15:03.365Z,67.40
2023-05-21T12:16:05.908Z,66.31
2023-05-21T12:17:03.358Z,71.70
2023-05-21T12:18:03.432Z,68.54
2023-05-21T12:19:03.411Z,71.77
2023-05-21T12:20:03.846Z,70.10
2023-05-21T12:21:03.341Z,66.62
2023-05-21T12:22:03.358Z,69.97
2023-05-21T12:23:03.330Z,70.43
2023-05-21T12:24:03.303Z,72.19
2023-05-21T12:25:03.303Z,75.83
2023-05-21T12:26:03.324Z,74.05
2023-05-21T12:27:03.312Z,67.94
2023-05-21T12:28:03.317Z,71.85
2023-05-21T12:29:03.309Z,74.47
2023-05-21T12:30:03.289Z,81.15
2023-05-21T12:31:03.303Z,81.03
2023-05-21T12:32:03.368Z,75.46
2023-05-21T12:33:03.302Z,71.58
2023-05-21T12:34:03.267Z,77.89
2023-05-21T12:35:03.259Z,71.28
2023-05-21T12:36:03.298Z,78.63
2023-05-21T12:37:03.239Z,87.08
2023-05-21T12:38:03.246Z,83.93
2023-05-21T12:39:03.261Z,88.51
2023-05-21T12:40:03.266Z,91.06
2023-05-21T12:41:03.303Z,92.98
2023-05-21T12:42:03.222Z,95.53
2023-05-21T12:43:03.182Z,97.39
2023-05-21T12:44:03.196Z,87.66
2023-05-21T12:45:03.212Z,80.70
2023-05-21T12:46:03.306Z,79.75